AAL1364 KMIA-TJSJ
Flight info
| Callsign | AAL1364 |
|---|---|
| Flight time | 2h 22m |
| Altitude | 37000 |
| Route | KLADA2 BITAC Y290 BEANO BEANO3 |
| Aircraft | B738/M-SDE2E3FGHIRWXY/LB1 |
Departure
| Time | 2026-05-04 22:53 |
|---|---|
| Airport | Miami International Airport (KMIA) |
Arrival
| Time | 2026-05-05 01:15 |
|---|---|
| Airport | Luis Munoz Marin International Airport (TJSJ) |
| Time | Latitude | Longitude | Altitude | Speed | Heading |
|---|---|---|---|---|---|
| 2026-05-04 22:17 | 25.79728 | -80.28449 | 14 ft | 0 kts | 357° |
| 2026-05-04 22:40 | 25.79715 | -80.28448 | 14 ft | 4 kts | 351° |
| 2026-05-04 22:40 | 25.79689 | -80.28440 | 15 ft | 4 kts | 326° |
| 2026-05-04 22:40 | 25.79672 | -80.28420 | 15 ft | 4 kts | 282° |
| 2026-05-04 22:40 | 25.79671 | -80.28410 | 14 ft | 0 kts | 268° |
| 2026-05-04 22:44 | 25.79670 | -80.28429 | 14 ft | 6 kts | 266° |
| 2026-05-04 22:44 | 25.79666 | -80.28475 | 14 ft | 6 kts | 264° |
| 2026-05-04 22:44 | 25.79661 | -80.28521 | 14 ft | 6 kts | 262° |
| 2026-05-04 22:45 | 25.79654 | -80.28566 | 14 ft | 7 kts | 259° |
| 2026-05-04 22:45 | 25.79647 | -80.28691 | 16 ft | 8 kts | 263° |
| 2026-05-04 22:45 | 25.79640 | -80.28750 | 14 ft | 8 kts | 271° |
| 2026-05-04 22:46 | 25.79660 | -80.28803 | 15 ft | 7 kts | 320° |
| 2026-05-04 22:46 | 25.79713 | -80.28815 | 15 ft | 9 kts | 354° |
| 2026-05-04 22:46 | 25.79790 | -80.28819 | 14 ft | 14 kts | 358° |
| 2026-05-04 22:46 | 25.79903 | -80.28826 | 14 ft | 18 kts | 356° |
| 2026-05-04 22:47 | 25.80005 | -80.28855 | 15 ft | 15 kts | 303° |
| 2026-05-04 22:47 | 25.80009 | -80.28966 | 15 ft | 14 kts | 265° |
| 2026-05-04 22:47 | 25.80002 | -80.29073 | 15 ft | 14 kts | 266° |
| 2026-05-04 22:47 | 25.79998 | -80.29174 | 15 ft | 13 kts | 269° |
| 2026-05-04 22:48 | 25.79995 | -80.29274 | 15 ft | 13 kts | 266° |
| 2026-05-04 22:48 | 25.79990 | -80.29370 | 14 ft | 12 kts | 269° |
| 2026-05-04 22:48 | 25.79992 | -80.29464 | 13 ft | 12 kts | 270° |
| 2026-05-04 22:48 | 25.79984 | -80.29558 | 13 ft | 13 kts | 265° |
| 2026-05-04 22:49 | 25.79979 | -80.29664 | 13 ft | 13 kts | 268° |
| 2026-05-04 22:49 | 25.79975 | -80.29766 | 13 ft | 13 kts | 266° |
| 2026-05-04 22:49 | 25.79970 | -80.29866 | 13 ft | 15 kts | 267° |
| 2026-05-04 22:49 | 25.79978 | -80.30000 | 14 ft | 19 kts | 287° |
| 2026-05-04 22:50 | 25.80030 | -80.30123 | 13 ft | 14 kts | 322° |
| 2026-05-04 22:50 | 25.80081 | -80.30101 | 13 ft | 8 kts | 74° |
| 2026-05-04 22:50 | 25.80077 | -80.30059 | 13 ft | 0 kts | 90° |
| 2026-05-04 22:52 | 25.80077 | -80.30058 | 15 ft | 0 kts | 89° |
| 2026-05-04 22:52 | 25.80080 | -80.29956 | 12 ft | 45 kts | 87° |
| 2026-05-04 22:52 | 25.80106 | -80.29341 | 15 ft | 113 kts | 87° |
| 2026-05-04 22:52 | 25.80152 | -80.28260 | 14 ft | 166 kts | 87° |
| 2026-05-04 22:53 | 25.80207 | -80.26920 | 537 ft | 171 kts | 88° |
| 2026-05-04 22:53 | 25.80260 | -80.25577 | 1158 ft | 181 kts | 88° |
| 2026-05-04 22:53 | 25.80192 | -80.24192 | 1816 ft | 184 kts | 108° |
| 2026-05-04 22:53 | 25.79520 | -80.22900 | 2164 ft | 209 kts | 127° |
| 2026-05-04 22:54 | 25.78678 | -80.21470 | 2385 ft | 233 kts | 123° |
| 2026-05-04 22:54 | 25.77793 | -80.19845 | 2593 ft | 259 kts | 122° |
| 2026-05-04 22:54 | 25.76870 | -80.18075 | 3242 ft | 268 kts | 121° |
| 2026-05-04 22:54 | 25.75944 | -80.16261 | 4063 ft | 271 kts | 120° |
| 2026-05-04 22:55 | 25.75021 | -80.14416 | 4670 ft | 276 kts | 120° |
| 2026-05-04 22:55 | 25.74090 | -80.12538 | 5400 ft | 279 kts | 120° |
| 2026-05-04 22:55 | 25.73172 | -80.10637 | 6239 ft | 280 kts | 116° |
| 2026-05-04 22:55 | 25.72433 | -80.08622 | 7015 ft | 284 kts | 111° |
| 2026-05-04 22:56 | 25.71775 | -80.06577 | 7757 ft | 287 kts | 110° |
| 2026-05-04 22:56 | 25.71104 | -80.04448 | 8513 ft | 290 kts | 110° |
| 2026-05-04 22:56 | 25.70438 | -80.02356 | 9234 ft | 293 kts | 110° |
| 2026-05-04 22:56 | 25.69748 | -80.00214 | 9968 ft | 296 kts | 110° |
| 2026-05-04 22:57 | 25.69038 | -79.98033 | 10454 ft | 310 kts | 110° |
| 2026-05-04 22:57 | 25.68273 | -79.95704 | 10695 ft | 330 kts | 110° |
| 2026-05-04 22:57 | 25.67474 | -79.93283 | 11274 ft | 338 kts | 110° |
| 2026-05-04 22:57 | 25.66662 | -79.90829 | 12001 ft | 340 kts | 110° |
| 2026-05-04 22:58 | 25.65842 | -79.88357 | 12734 ft | 343 kts | 111° |
| 2026-05-04 22:58 | 25.65014 | -79.85864 | 13440 ft | 346 kts | 111° |
| 2026-05-04 22:58 | 25.64176 | -79.83345 | 14150 ft | 350 kts | 111° |
| 2026-05-04 22:58 | 25.63329 | -79.80800 | 14849 ft | 354 kts | 111° |
| 2026-05-04 22:59 | 25.62474 | -79.78233 | 15571 ft | 357 kts | 111° |
| 2026-05-04 22:59 | 25.61607 | -79.75633 | 16264 ft | 361 kts | 111° |
| 2026-05-04 22:59 | 25.60733 | -79.73012 | 16937 ft | 365 kts | 111° |
| 2026-05-04 22:59 | 25.59849 | -79.70367 | 17597 ft | 368 kts | 111° |
| 2026-05-04 23:00 | 25.58928 | -79.67707 | 18239 ft | 372 kts | 112° |
| 2026-05-04 23:00 | 25.57959 | -79.65037 | 18864 ft | 375 kts | 112° |
| 2026-05-04 23:00 | 25.56967 | -79.62349 | 19481 ft | 379 kts | 112° |
| 2026-05-04 23:00 | 25.55965 | -79.59637 | 20083 ft | 382 kts | 112° |
| 2026-05-04 23:01 | 25.54955 | -79.56903 | 20671 ft | 385 kts | 112° |
| 2026-05-04 23:01 | 25.53939 | -79.54144 | 21238 ft | 389 kts | 112° |
| 2026-05-04 23:01 | 25.52916 | -79.51358 | 21784 ft | 392 kts | 112° |
| 2026-05-04 23:01 | 25.51885 | -79.48549 | 22321 ft | 395 kts | 112° |
| 2026-05-04 23:02 | 25.50846 | -79.45718 | 22845 ft | 398 kts | 112° |
| 2026-05-04 23:02 | 25.49800 | -79.42868 | 23350 ft | 402 kts | 112° |
| 2026-05-04 23:02 | 25.48745 | -79.39993 | 23837 ft | 405 kts | 112° |
| 2026-05-04 23:02 | 25.47681 | -79.37097 | 24309 ft | 408 kts | 112° |
| 2026-05-04 23:03 | 25.46610 | -79.34182 | 24786 ft | 411 kts | 112° |
| 2026-05-04 23:03 | 25.45531 | -79.31247 | 25236 ft | 413 kts | 112° |
| 2026-05-04 23:03 | 25.44442 | -79.28290 | 25672 ft | 416 kts | 112° |
| 2026-05-04 23:03 | 25.43347 | -79.25318 | 26101 ft | 419 kts | 112° |
| 2026-05-04 23:04 | 25.42243 | -79.22321 | 26515 ft | 422 kts | 112° |
| 2026-05-04 23:04 | 25.41131 | -79.19308 | 26918 ft | 424 kts | 112° |
| 2026-05-04 23:04 | 25.40012 | -79.16277 | 27312 ft | 427 kts | 112° |
| 2026-05-04 23:04 | 25.38886 | -79.13228 | 27692 ft | 429 kts | 112° |
| 2026-05-04 23:05 | 25.37753 | -79.10164 | 28060 ft | 432 kts | 112° |
| 2026-05-04 23:05 | 25.36612 | -79.07080 | 28419 ft | 434 kts | 112° |
| 2026-05-04 23:05 | 25.35466 | -79.03984 | 28768 ft | 437 kts | 112° |
| 2026-05-04 23:05 | 25.34311 | -79.00867 | 29110 ft | 439 kts | 112° |
| 2026-05-04 23:06 | 25.33166 | -78.97779 | 29437 ft | 441 kts | 112° |
| 2026-05-04 23:06 | 25.32000 | -78.94639 | 29765 ft | 443 kts | 112° |
| 2026-05-04 23:06 | 25.30826 | -78.91476 | 30069 ft | 446 kts | 112° |
| 2026-05-04 23:06 | 25.29646 | -78.88302 | 30379 ft | 448 kts | 112° |
| 2026-05-04 23:07 | 25.28460 | -78.85113 | 30660 ft | 450 kts | 112° |
| 2026-05-04 23:07 | 25.27268 | -78.81910 | 30937 ft | 452 kts | 112° |
| 2026-05-04 23:07 | 25.26070 | -78.78696 | 31217 ft | 454 kts | 112° |
| 2026-05-04 23:07 | 25.24868 | -78.75471 | 31479 ft | 455 kts | 113° |
| 2026-05-04 23:08 | 25.23658 | -78.72226 | 31756 ft | 457 kts | 113° |
| 2026-05-04 23:08 | 25.22449 | -78.68988 | 32128 ft | 456 kts | 113° |
| 2026-05-04 23:08 | 25.21244 | -78.65762 | 32510 ft | 454 kts | 113° |
| 2026-05-04 23:08 | 25.20042 | -78.62546 | 32863 ft | 453 kts | 113° |
| 2026-05-04 23:09 | 25.18841 | -78.59338 | 33173 ft | 453 kts | 113° |
| 2026-05-04 23:09 | 25.17632 | -78.56130 | 33467 ft | 452 kts | 114° |
| 2026-05-04 23:09 | 25.16366 | -78.52953 | 33783 ft | 451 kts | 115° |
| 2026-05-04 23:09 | 25.15067 | -78.49803 | 34098 ft | 450 kts | 115° |
| 2026-05-04 23:10 | 25.14201 | -78.47727 | 34287 ft | 450 kts | 115° |
| 2026-05-04 23:10 | 25.12450 | -78.43532 | 34671 ft | 450 kts | 115° |
| 2026-05-04 23:10 | 25.11148 | -78.40399 | 34956 ft | 449 kts | 115° |
| 2026-05-04 23:10 | 25.09850 | -78.37264 | 35231 ft | 448 kts | 115° |
| 2026-05-04 23:11 | 25.08560 | -78.34136 | 35494 ft | 448 kts | 115° |
| 2026-05-04 23:11 | 25.07272 | -78.31013 | 35757 ft | 447 kts | 115° |
| 2026-05-04 23:11 | 25.05986 | -78.27890 | 36011 ft | 447 kts | 115° |
| 2026-05-04 23:11 | 25.04700 | -78.24770 | 36215 ft | 447 kts | 115° |
| 2026-05-04 23:12 | 25.03412 | -78.21645 | 36385 ft | 449 kts | 115° |
| 2026-05-04 23:12 | 25.02554 | -78.19566 | 36509 ft | 449 kts | 115° |
| 2026-05-04 23:12 | 25.01261 | -78.16436 | 36724 ft | 449 kts | 115° |
| 2026-05-04 23:12 | 24.99966 | -78.13302 | 36957 ft | 448 kts | 115° |
| 2026-05-04 23:13 | 24.97359 | -78.07001 | 37007 ft | 455 kts | 115° |
| 2026-05-04 23:13 | 24.94279 | -77.99570 | 37010 ft | 461 kts | 115° |
| 2026-05-04 23:14 | 24.92041 | -77.94177 | 37008 ft | 463 kts | 115° |
| 2026-05-04 23:14 | 24.89357 | -77.87717 | 37002 ft | 464 kts | 115° |
| 2026-05-04 23:15 | 24.86668 | -77.81257 | 36999 ft | 464 kts | 115° |
| 2026-05-04 23:15 | 24.83986 | -77.74821 | 36997 ft | 461 kts | 115° |
| 2026-05-04 23:16 | 24.81332 | -77.68462 | 36996 ft | 459 kts | 115° |
| 2026-05-04 23:16 | 24.78672 | -77.62097 | 36997 ft | 457 kts | 115° |
| 2026-05-04 23:17 | 24.76022 | -77.55764 | 36999 ft | 454 kts | 115° |
| 2026-05-04 23:17 | 24.73315 | -77.49497 | 37000 ft | 452 kts | 117° |
| 2026-05-04 23:18 | 24.70477 | -77.43333 | 37002 ft | 451 kts | 117° |
| 2026-05-04 23:18 | 24.67627 | -77.37180 | 37003 ft | 451 kts | 117° |
| 2026-05-04 23:19 | 24.64791 | -77.31018 | 37003 ft | 452 kts | 117° |
| 2026-05-04 23:19 | 24.61957 | -77.24840 | 37003 ft | 453 kts | 117° |
| 2026-05-04 23:20 | 24.59114 | -77.18640 | 37003 ft | 455 kts | 117° |
| 2026-05-04 23:20 | 24.56260 | -77.12425 | 37003 ft | 456 kts | 117° |
| 2026-05-04 23:21 | 24.53396 | -77.06196 | 37002 ft | 457 kts | 117° |
| 2026-05-04 23:21 | 24.50522 | -76.99956 | 37002 ft | 458 kts | 117° |
| 2026-05-04 23:22 | 24.47638 | -76.93704 | 37001 ft | 459 kts | 117° |
| 2026-05-04 23:22 | 24.44771 | -76.87495 | 37001 ft | 459 kts | 117° |
| 2026-05-04 23:23 | 24.41881 | -76.81246 | 37001 ft | 459 kts | 117° |
| 2026-05-04 23:23 | 24.38992 | -76.75006 | 37001 ft | 459 kts | 117° |
| 2026-05-04 23:24 | 24.36102 | -76.68774 | 37000 ft | 458 kts | 117° |
| 2026-05-04 23:24 | 24.33213 | -76.62551 | 37001 ft | 457 kts | 117° |
| 2026-05-04 23:25 | 24.30330 | -76.56350 | 37001 ft | 456 kts | 117° |
| 2026-05-04 23:25 | 24.27445 | -76.50153 | 37001 ft | 456 kts | 117° |
| 2026-05-04 23:26 | 24.24563 | -76.43970 | 37001 ft | 455 kts | 117° |
| 2026-05-04 23:26 | 24.21679 | -76.37793 | 37002 ft | 455 kts | 117° |
| 2026-05-04 23:27 | 24.18797 | -76.31627 | 37001 ft | 455 kts | 117° |
| 2026-05-04 23:27 | 24.15914 | -76.25466 | 37001 ft | 455 kts | 117° |
| 2026-05-04 23:28 | 24.13026 | -76.19303 | 37002 ft | 455 kts | 117° |
| 2026-05-04 23:28 | 24.10134 | -76.13139 | 37001 ft | 455 kts | 117° |
| 2026-05-04 23:29 | 24.07239 | -76.06978 | 37002 ft | 455 kts | 118° |
| 2026-05-04 23:29 | 24.04339 | -76.00814 | 37002 ft | 456 kts | 118° |
| 2026-05-04 23:30 | 24.01434 | -75.94648 | 37001 ft | 456 kts | 118° |
| 2026-05-04 23:30 | 23.98527 | -75.88484 | 37002 ft | 456 kts | 118° |
| 2026-05-04 23:31 | 23.95612 | -75.82312 | 37002 ft | 457 kts | 118° |
| 2026-05-04 23:31 | 23.92695 | -75.76145 | 37001 ft | 457 kts | 118° |
| 2026-05-04 23:32 | 23.89775 | -75.69977 | 37002 ft | 457 kts | 118° |
| 2026-05-04 23:32 | 23.86851 | -75.63810 | 37001 ft | 457 kts | 118° |
| 2026-05-04 23:33 | 23.83923 | -75.57644 | 37001 ft | 457 kts | 118° |
| 2026-05-04 23:33 | 23.80996 | -75.51485 | 37001 ft | 457 kts | 118° |
| 2026-05-04 23:34 | 23.78065 | -75.45328 | 37001 ft | 457 kts | 118° |
| 2026-05-04 23:34 | 23.75132 | -75.39173 | 37001 ft | 457 kts | 118° |
| 2026-05-04 23:35 | 23.72197 | -75.33023 | 37001 ft | 457 kts | 118° |
| 2026-05-04 23:35 | 23.69262 | -75.26879 | 37001 ft | 456 kts | 118° |
| 2026-05-04 23:36 | 23.66325 | -75.20742 | 37001 ft | 456 kts | 118° |
| 2026-05-04 23:36 | 23.63390 | -75.14613 | 37001 ft | 456 kts | 118° |
| 2026-05-04 23:37 | 23.60470 | -75.08526 | 37002 ft | 456 kts | 118° |
| 2026-05-04 23:37 | 23.57528 | -75.02399 | 37002 ft | 456 kts | 118° |
| 2026-05-04 23:38 | 23.54584 | -74.96277 | 37002 ft | 456 kts | 118° |
| 2026-05-04 23:38 | 23.51638 | -74.90157 | 37001 ft | 456 kts | 118° |
| 2026-05-04 23:39 | 23.48689 | -74.84041 | 37001 ft | 456 kts | 118° |
| 2026-05-04 23:39 | 23.45738 | -74.77926 | 37002 ft | 456 kts | 118° |
| 2026-05-04 23:40 | 23.42784 | -74.71814 | 37002 ft | 456 kts | 118° |
| 2026-05-04 23:40 | 23.39827 | -74.65702 | 37002 ft | 456 kts | 118° |
| 2026-05-04 23:41 | 23.36869 | -74.59597 | 37001 ft | 456 kts | 118° |
| 2026-05-04 23:41 | 23.33905 | -74.53485 | 37001 ft | 456 kts | 118° |
| 2026-05-04 23:42 | 23.30940 | -74.47381 | 37002 ft | 456 kts | 118° |
| 2026-05-04 23:42 | 23.27975 | -74.41284 | 37001 ft | 456 kts | 118° |
| 2026-05-04 23:43 | 23.25003 | -74.35180 | 37001 ft | 456 kts | 118° |
| 2026-05-04 23:43 | 23.22030 | -74.29082 | 37002 ft | 456 kts | 118° |
| 2026-05-04 23:44 | 23.19054 | -74.22984 | 37001 ft | 456 kts | 118° |
| 2026-05-04 23:44 | 23.16075 | -74.16889 | 37001 ft | 456 kts | 118° |
| 2026-05-04 23:45 | 23.13096 | -74.10800 | 37002 ft | 456 kts | 118° |
| 2026-05-04 23:45 | 23.10116 | -74.04717 | 37001 ft | 456 kts | 118° |
| 2026-05-04 23:46 | 23.07133 | -73.98636 | 37001 ft | 456 kts | 118° |
| 2026-05-04 23:46 | 23.04145 | -73.92551 | 37001 ft | 456 kts | 118° |
| 2026-05-04 23:47 | 23.01158 | -73.86476 | 37002 ft | 456 kts | 118° |
| 2026-05-04 23:47 | 22.98167 | -73.80402 | 37001 ft | 456 kts | 118° |
| 2026-05-04 23:48 | 22.95195 | -73.74371 | 37001 ft | 456 kts | 118° |
| 2026-05-04 23:48 | 22.92200 | -73.68302 | 37002 ft | 456 kts | 118° |
| 2026-05-04 23:49 | 22.89204 | -73.62240 | 37001 ft | 456 kts | 118° |
| 2026-05-04 23:49 | 22.86205 | -73.56177 | 37001 ft | 456 kts | 118° |
| 2026-05-04 23:50 | 22.83205 | -73.50120 | 37001 ft | 456 kts | 119° |
| 2026-05-04 23:50 | 22.80199 | -73.44059 | 37002 ft | 456 kts | 119° |
| 2026-05-04 23:51 | 22.77196 | -73.38009 | 37001 ft | 456 kts | 119° |
| 2026-05-04 23:51 | 22.74187 | -73.31956 | 37001 ft | 456 kts | 119° |
| 2026-05-04 23:52 | 22.71174 | -73.25902 | 37002 ft | 456 kts | 119° |
| 2026-05-04 23:52 | 22.68160 | -73.19853 | 37002 ft | 456 kts | 119° |
| 2026-05-04 23:53 | 22.65145 | -73.13809 | 37001 ft | 456 kts | 119° |
| 2026-05-04 23:53 | 22.62128 | -73.07768 | 37002 ft | 456 kts | 119° |
| 2026-05-04 23:54 | 22.59108 | -73.01728 | 37001 ft | 456 kts | 119° |
| 2026-05-04 23:54 | 22.56084 | -72.95690 | 37001 ft | 456 kts | 119° |
| 2026-05-04 23:55 | 22.53060 | -72.89656 | 37002 ft | 456 kts | 119° |
| 2026-05-04 23:56 | 22.48517 | -72.80605 | 37001 ft | 456 kts | 119° |
| 2026-05-04 23:56 | 22.45488 | -72.74581 | 37001 ft | 456 kts | 119° |
| 2026-05-04 23:57 | 22.42454 | -72.68551 | 37001 ft | 456 kts | 119° |
| 2026-05-04 23:57 | 22.39420 | -72.62532 | 37002 ft | 456 kts | 119° |
| 2026-05-04 23:58 | 22.36385 | -72.56515 | 37001 ft | 456 kts | 119° |
| 2026-05-04 23:58 | 22.33344 | -72.50495 | 37002 ft | 456 kts | 119° |
| 2026-05-04 23:58 | 22.31830 | -72.47497 | 35738 ft | 454 kts | 123° |
| 2026-05-04 23:59 | 22.30326 | -72.44526 | 35847 ft | 449 kts | 121° |
| 2026-05-04 23:59 | 22.27839 | -72.39611 | 36166 ft | 448 kts | 124° |
| 2026-05-04 23:59 | 22.26347 | -72.36666 | 36404 ft | 447 kts | 124° |
| 2026-05-05 00:00 | 22.24857 | -72.33725 | 36637 ft | 446 kts | 124° |
| 2026-05-05 00:00 | 22.23873 | -72.31785 | 36770 ft | 446 kts | 124° |
| 2026-05-05 00:00 | 22.21871 | -72.27841 | 36920 ft | 450 kts | 124° |
| 2026-05-05 00:01 | 22.18836 | -72.21874 | 37034 ft | 457 kts | 123° |
| 2026-05-05 00:01 | 22.15740 | -72.15790 | 37048 ft | 468 kts | 123° |
| 2026-05-05 00:02 | 22.12571 | -72.09568 | 37042 ft | 478 kts | 123° |
| 2026-05-05 00:02 | 22.09335 | -72.03218 | 37039 ft | 488 kts | 123° |
| 2026-05-05 00:03 | 22.06035 | -71.96748 | 37038 ft | 497 kts | 123° |
| 2026-05-05 00:03 | 22.02672 | -71.90166 | 37024 ft | 505 kts | 123° |
| 2026-05-05 00:04 | 21.99270 | -71.83511 | 37034 ft | 508 kts | 123° |
| 2026-05-05 00:04 | 21.95852 | -71.76835 | 37025 ft | 510 kts | 123° |
| 2026-05-05 00:05 | 21.92425 | -71.70150 | 37031 ft | 510 kts | 123° |
| 2026-05-05 00:05 | 21.88995 | -71.63471 | 37017 ft | 509 kts | 123° |
| 2026-05-05 00:06 | 21.85570 | -71.56809 | 37019 ft | 508 kts | 123° |
| 2026-05-05 00:06 | 21.82157 | -71.50179 | 37025 ft | 505 kts | 123° |
| 2026-05-05 00:07 | 21.78778 | -71.43623 | 37026 ft | 503 kts | 123° |
| 2026-05-05 00:07 | 21.75386 | -71.37052 | 37029 ft | 501 kts | 123° |
| 2026-05-05 00:08 | 21.72004 | -71.30506 | 37023 ft | 500 kts | 123° |
| 2026-05-05 00:08 | 21.68628 | -71.23982 | 37021 ft | 499 kts | 123° |
| 2026-05-05 00:09 | 21.65258 | -71.17476 | 37023 ft | 498 kts | 123° |
| 2026-05-05 00:09 | 21.61890 | -71.10979 | 37029 ft | 497 kts | 123° |
| 2026-05-05 00:10 | 21.58523 | -71.04494 | 37029 ft | 497 kts | 123° |
| 2026-05-05 00:10 | 21.54890 | -70.98207 | 37038 ft | 494 kts | 128° |
| 2026-05-05 00:11 | 21.50958 | -70.92151 | 37038 ft | 495 kts | 129° |
| 2026-05-05 00:11 | 21.47003 | -70.86092 | 37028 ft | 496 kts | 129° |
| 2026-05-05 00:12 | 21.43080 | -70.79993 | 37029 ft | 497 kts | 128° |
| 2026-05-05 00:12 | 21.39176 | -70.73875 | 37032 ft | 497 kts | 128° |
| 2026-05-05 00:13 | 21.35266 | -70.67744 | 37030 ft | 498 kts | 128° |
| 2026-05-05 00:13 | 21.31351 | -70.61616 | 37031 ft | 498 kts | 128° |
| 2026-05-05 00:14 | 21.27431 | -70.55492 | 37020 ft | 498 kts | 128° |
| 2026-05-05 00:14 | 21.23514 | -70.49380 | 37024 ft | 497 kts | 128° |
| 2026-05-05 00:15 | 21.19604 | -70.43285 | 37026 ft | 496 kts | 128° |
| 2026-05-05 00:15 | 21.15697 | -70.37201 | 37026 ft | 495 kts | 128° |
| 2026-05-05 00:16 | 21.11796 | -70.31133 | 37027 ft | 494 kts | 128° |
| 2026-05-05 00:16 | 21.07899 | -70.25078 | 37027 ft | 493 kts | 128° |
| 2026-05-05 00:17 | 21.04007 | -70.19038 | 37019 ft | 492 kts | 128° |
| 2026-05-05 00:17 | 21.00123 | -70.13016 | 37029 ft | 491 kts | 128° |
| 2026-05-05 00:18 | 20.96239 | -70.07000 | 37024 ft | 491 kts | 128° |
| 2026-05-05 00:18 | 20.92360 | -70.00999 | 37027 ft | 490 kts | 128° |
| 2026-05-05 00:19 | 20.88481 | -69.95004 | 37021 ft | 489 kts | 128° |
| 2026-05-05 00:19 | 20.84635 | -69.89067 | 37029 ft | 489 kts | 128° |
| 2026-05-05 00:20 | 20.80762 | -69.83094 | 37030 ft | 488 kts | 128° |
| 2026-05-05 00:20 | 20.76894 | -69.77135 | 37022 ft | 488 kts | 128° |
| 2026-05-05 00:21 | 20.73024 | -69.71178 | 37033 ft | 488 kts | 128° |
| 2026-05-05 00:21 | 20.69155 | -69.65230 | 37035 ft | 487 kts | 128° |
| 2026-05-05 00:22 | 20.65284 | -69.59285 | 37035 ft | 487 kts | 128° |
| 2026-05-05 00:22 | 20.61413 | -69.53346 | 37035 ft | 487 kts | 128° |
| 2026-05-05 00:23 | 20.57544 | -69.47415 | 37038 ft | 487 kts | 128° |
| 2026-05-05 00:23 | 20.53668 | -69.41482 | 37031 ft | 487 kts | 128° |
| 2026-05-05 00:24 | 20.49795 | -69.35557 | 37024 ft | 486 kts | 128° |
| 2026-05-05 00:24 | 20.45925 | -69.29644 | 37031 ft | 486 kts | 128° |
| 2026-05-05 00:25 | 20.42056 | -69.23738 | 37039 ft | 486 kts | 128° |
| 2026-05-05 00:25 | 20.38184 | -69.17833 | 37034 ft | 486 kts | 128° |
| 2026-05-05 00:26 | 20.34314 | -69.11939 | 37039 ft | 486 kts | 128° |
| 2026-05-05 00:26 | 20.30438 | -69.06040 | 37034 ft | 486 kts | 128° |
| 2026-05-05 00:27 | 20.26567 | -69.00154 | 37035 ft | 485 kts | 128° |
| 2026-05-05 00:27 | 20.22689 | -68.94264 | 37039 ft | 485 kts | 128° |
| 2026-05-05 00:28 | 20.18813 | -68.88382 | 37039 ft | 485 kts | 128° |
| 2026-05-05 00:28 | 20.14936 | -68.82505 | 37039 ft | 485 kts | 128° |
| 2026-05-05 00:29 | 20.11056 | -68.76627 | 37038 ft | 485 kts | 128° |
| 2026-05-05 00:29 | 20.07182 | -68.70748 | 37043 ft | 485 kts | 127° |
| 2026-05-05 00:30 | 20.03447 | -68.64759 | 37045 ft | 486 kts | 125° |
| 2026-05-05 00:30 | 19.99766 | -68.58728 | 37043 ft | 486 kts | 125° |
| 2026-05-05 00:31 | 19.96072 | -68.52715 | 37040 ft | 486 kts | 126° |
| 2026-05-05 00:31 | 19.92362 | -68.46716 | 37045 ft | 486 kts | 126° |
| 2026-05-05 00:32 | 19.88646 | -68.40725 | 37045 ft | 486 kts | 126° |
| 2026-05-05 00:32 | 19.84928 | -68.34737 | 37047 ft | 485 kts | 126° |
| 2026-05-05 00:33 | 19.81208 | -68.28750 | 37050 ft | 485 kts | 126° |
| 2026-05-05 00:33 | 19.77491 | -68.22772 | 37049 ft | 485 kts | 126° |
| 2026-05-05 00:34 | 19.73767 | -68.16789 | 37041 ft | 485 kts | 126° |
| 2026-05-05 00:34 | 19.70047 | -68.10818 | 37050 ft | 485 kts | 126° |
| 2026-05-05 00:35 | 19.66323 | -68.04848 | 37050 ft | 485 kts | 126° |
| 2026-05-05 00:35 | 19.62598 | -67.98881 | 37049 ft | 485 kts | 126° |
| 2026-05-05 00:36 | 19.58873 | -67.92918 | 37046 ft | 485 kts | 126° |
| 2026-05-05 00:36 | 19.55138 | -67.86947 | 36723 ft | 490 kts | 126° |
| 2026-05-05 00:36 | 19.53251 | -67.83932 | 36207 ft | 489 kts | 126° |
| 2026-05-05 00:37 | 19.51376 | -67.80935 | 35616 ft | 488 kts | 126° |
| 2026-05-05 00:37 | 19.49497 | -67.77937 | 34975 ft | 488 kts | 125° |
| 2026-05-05 00:37 | 19.47613 | -67.74936 | 34286 ft | 490 kts | 126° |
| 2026-05-05 00:37 | 19.45718 | -67.71928 | 33499 ft | 491 kts | 125° |
| 2026-05-05 00:38 | 19.43816 | -67.68910 | 32761 ft | 492 kts | 125° |
| 2026-05-05 00:38 | 19.41918 | -67.65901 | 32008 ft | 492 kts | 125° |
| 2026-05-05 00:38 | 19.40017 | -67.62886 | 31352 ft | 491 kts | 125° |
| 2026-05-05 00:38 | 19.38129 | -67.59891 | 30780 ft | 487 kts | 125° |
| 2026-05-05 00:39 | 19.36256 | -67.56920 | 30229 ft | 483 kts | 125° |
| 2026-05-05 00:39 | 19.34395 | -67.53970 | 29593 ft | 480 kts | 124° |
| 2026-05-05 00:39 | 19.32554 | -67.51054 | 29009 ft | 474 kts | 124° |
| 2026-05-05 00:39 | 19.30733 | -67.48169 | 28439 ft | 468 kts | 124° |
| 2026-05-05 00:40 | 19.28933 | -67.45320 | 27880 ft | 463 kts | 125° |
| 2026-05-05 00:40 | 19.27153 | -67.42506 | 27340 ft | 458 kts | 125° |
| 2026-05-05 00:40 | 19.25393 | -67.39721 | 26797 ft | 453 kts | 125° |
| 2026-05-05 00:40 | 19.23675 | -67.37003 | 26267 ft | 448 kts | 125° |
| 2026-05-05 00:41 | 19.21930 | -67.34243 | 25751 ft | 443 kts | 125° |
| 2026-05-05 00:41 | 19.20246 | -67.31579 | 25201 ft | 439 kts | 125° |
| 2026-05-05 00:41 | 19.18554 | -67.28905 | 24669 ft | 436 kts | 125° |
| 2026-05-05 00:41 | 19.16854 | -67.26219 | 24133 ft | 432 kts | 125° |
| 2026-05-05 00:42 | 19.15213 | -67.23626 | 23611 ft | 428 kts | 126° |
| 2026-05-05 00:42 | 19.13563 | -67.21021 | 23006 ft | 424 kts | 125° |
| 2026-05-05 00:42 | 19.11930 | -67.18445 | 22456 ft | 420 kts | 125° |
| 2026-05-05 00:42 | 19.10313 | -67.15894 | 21921 ft | 415 kts | 125° |
| 2026-05-05 00:43 | 19.08711 | -67.13367 | 21404 ft | 412 kts | 125° |
| 2026-05-05 00:43 | 19.07124 | -67.10867 | 20896 ft | 408 kts | 125° |
| 2026-05-05 00:43 | 19.05546 | -67.08380 | 20373 ft | 406 kts | 125° |
| 2026-05-05 00:43 | 19.03974 | -67.05905 | 19859 ft | 405 kts | 125° |
| 2026-05-05 00:44 | 19.02408 | -67.03440 | 19342 ft | 404 kts | 125° |
| 2026-05-05 00:44 | 19.01353 | -67.01779 | 18993 ft | 403 kts | 125° |
| 2026-05-05 00:44 | 18.99789 | -66.99319 | 18480 ft | 403 kts | 125° |
| 2026-05-05 00:44 | 18.98226 | -66.96862 | 17912 ft | 403 kts | 125° |
| 2026-05-05 00:45 | 18.96667 | -66.94410 | 17383 ft | 401 kts | 125° |
| 2026-05-05 00:45 | 18.95116 | -66.91973 | 16875 ft | 398 kts | 125° |
| 2026-05-05 00:45 | 18.93580 | -66.89561 | 16391 ft | 394 kts | 124° |
| 2026-05-05 00:45 | 18.92057 | -66.87167 | 15898 ft | 391 kts | 125° |
| 2026-05-05 00:46 | 18.90543 | -66.84790 | 15401 ft | 389 kts | 125° |
| 2026-05-05 00:46 | 18.89038 | -66.82429 | 14915 ft | 386 kts | 125° |
| 2026-05-05 00:46 | 18.87561 | -66.80113 | 14422 ft | 384 kts | 125° |
| 2026-05-05 00:46 | 18.86076 | -66.77784 | 13918 ft | 381 kts | 125° |
| 2026-05-05 00:47 | 18.84599 | -66.75469 | 13312 ft | 369 kts | 124° |
| 2026-05-05 00:47 | 18.83209 | -66.73290 | 12848 ft | 356 kts | 125° |
| 2026-05-05 00:47 | 18.81850 | -66.71159 | 12389 ft | 344 kts | 124° |
| 2026-05-05 00:47 | 18.80534 | -66.69097 | 11955 ft | 337 kts | 124° |
| 2026-05-05 00:48 | 18.79228 | -66.67053 | 11515 ft | 335 kts | 124° |
| 2026-05-05 00:48 | 18.77931 | -66.65024 | 11176 ft | 331 kts | 125° |
| 2026-05-05 00:48 | 18.76664 | -66.63042 | 11041 ft | 320 kts | 124° |
| 2026-05-05 00:48 | 18.75406 | -66.61144 | 10811 ft | 313 kts | 128° |
| 2026-05-05 00:49 | 18.74062 | -66.59363 | 10554 ft | 307 kts | 130° |
| 2026-05-05 00:49 | 18.72706 | -66.57639 | 10286 ft | 302 kts | 130° |
| 2026-05-05 00:49 | 18.71371 | -66.55951 | 10050 ft | 298 kts | 131° |
| 2026-05-05 00:49 | 18.70061 | -66.54287 | 9894 ft | 289 kts | 131° |
| 2026-05-05 00:50 | 18.68805 | -66.52684 | 9706 ft | 282 kts | 130° |
| 2026-05-05 00:50 | 18.67549 | -66.51075 | 9329 ft | 281 kts | 131° |
| 2026-05-05 00:50 | 18.66318 | -66.49494 | 9041 ft | 275 kts | 131° |
| 2026-05-05 00:50 | 18.65127 | -66.47962 | 8793 ft | 268 kts | 130° |
| 2026-05-05 00:51 | 18.63943 | -66.46438 | 8587 ft | 270 kts | 130° |
| 2026-05-05 00:51 | 18.62748 | -66.44900 | 8365 ft | 272 kts | 130° |
| 2026-05-05 00:51 | 18.61550 | -66.43357 | 8126 ft | 271 kts | 130° |
| 2026-05-05 00:51 | 18.60359 | -66.41823 | 7890 ft | 269 kts | 130° |
| 2026-05-05 00:52 | 18.59179 | -66.40303 | 7673 ft | 267 kts | 131° |
| 2026-05-05 00:52 | 18.58006 | -66.38793 | 7437 ft | 266 kts | 130° |
| 2026-05-05 00:52 | 18.56838 | -66.37289 | 7218 ft | 264 kts | 130° |
| 2026-05-05 00:52 | 18.55679 | -66.35796 | 6997 ft | 262 kts | 129° |
| 2026-05-05 00:53 | 18.54530 | -66.34316 | 6780 ft | 260 kts | 129° |
| 2026-05-05 00:53 | 18.53387 | -66.32844 | 6554 ft | 258 kts | 129° |
| 2026-05-05 00:53 | 18.52254 | -66.31387 | 6335 ft | 256 kts | 129° |
| 2026-05-05 00:53 | 18.51125 | -66.29935 | 6099 ft | 255 kts | 129° |
| 2026-05-05 00:54 | 18.49999 | -66.28487 | 5791 ft | 257 kts | 129° |
| 2026-05-05 00:54 | 18.48866 | -66.27023 | 5435 ft | 259 kts | 129° |
| 2026-05-05 00:54 | 18.47726 | -66.25551 | 5056 ft | 257 kts | 129° |
| 2026-05-05 00:54 | 18.46604 | -66.24103 | 4683 ft | 253 kts | 129° |
| 2026-05-05 00:55 | 18.45502 | -66.22681 | 4305 ft | 248 kts | 129° |
| 2026-05-05 00:55 | 18.44421 | -66.21287 | 3937 ft | 243 kts | 129° |
| 2026-05-05 00:55 | 18.43486 | -66.19834 | 3556 ft | 239 kts | 110° |
| 2026-05-05 00:55 | 18.43363 | -66.18140 | 3262 ft | 227 kts | 87° |
| 2026-05-05 00:56 | 18.43426 | -66.16545 | 2927 ft | 209 kts | 93° |
| 2026-05-05 00:56 | 18.43404 | -66.15078 | 2626 ft | 192 kts | 93° |
| 2026-05-05 00:56 | 18.43392 | -66.13697 | 2248 ft | 184 kts | 93° |
| 2026-05-05 00:56 | 18.43389 | -66.12420 | 2031 ft | 165 kts | 94° |
| 2026-05-05 00:57 | 18.43385 | -66.11269 | 1814 ft | 148 kts | 95° |
| 2026-05-05 00:57 | 18.43381 | -66.10227 | 1603 ft | 138 kts | 93° |
| 2026-05-05 00:57 | 18.43378 | -66.09215 | 1433 ft | 141 kts | 94° |
| 2026-05-05 00:57 | 18.43374 | -66.08199 | 1256 ft | 137 kts | 94° |
| 2026-05-05 00:58 | 18.43371 | -66.07190 | 1084 ft | 139 kts | 94° |
| 2026-05-05 00:58 | 18.43369 | -66.06167 | 934 ft | 140 kts | 94° |
| 2026-05-05 00:58 | 18.43380 | -66.05145 | 723 ft | 140 kts | 92° |
| 2026-05-05 00:58 | 18.43371 | -66.04141 | 572 ft | 138 kts | 93° |
| 2026-05-05 00:59 | 18.43376 | -66.03135 | 347 ft | 137 kts | 92° |
| 2026-05-05 00:59 | 18.43365 | -66.02130 | 217 ft | 137 kts | 89° |
| 2026-05-05 00:59 | 18.43361 | -66.01157 | 31 ft | 128 kts | 89° |
| 2026-05-05 00:59 | 18.43361 | -66.00267 | 31 ft | 126 kts | 92° |
| 2026-05-05 01:00 | 18.43373 | -65.99268 | 681 ft | 150 kts | 91° |
| 2026-05-05 01:00 | 18.43366 | -65.98012 | 1267 ft | 182 kts | 93° |
| 2026-05-05 01:00 | 18.43378 | -65.96813 | 2563 ft | 160 kts | 91° |
| 2026-05-05 01:00 | 18.43477 | -65.95508 | 3210 ft | 192 kts | 86° |
| 2026-05-05 01:01 | 18.43663 | -65.94003 | 3537 ft | 218 kts | 84° |
| 2026-05-05 01:01 | 18.43943 | -65.92483 | 4390 ft | 212 kts | 77° |
| 2026-05-05 01:01 | 18.44744 | -65.91135 | 5217 ft | 228 kts | 44° |
| 2026-05-05 01:01 | 18.46194 | -65.90357 | 5979 ft | 247 kts | 21° |
| 2026-05-05 01:02 | 18.48009 | -65.89839 | 4982 ft | 296 kts | 15° |
| 2026-05-05 01:02 | 18.50168 | -65.89269 | 3607 ft | 338 kts | 17° |
| 2026-05-05 01:02 | 18.52436 | -65.88679 | 3276 ft | 331 kts | 12° |
| 2026-05-05 01:02 | 18.54679 | -65.88406 | 3141 ft | 318 kts | 7° |
| 2026-05-05 01:03 | 18.56838 | -65.88219 | 3013 ft | 305 kts | 6° |
| 2026-05-05 01:03 | 18.58909 | -65.88080 | 2962 ft | 292 kts | 0° |
| 2026-05-05 01:03 | 18.60833 | -65.88555 | 2955 ft | 282 kts | 333° |
| 2026-05-05 01:03 | 18.62282 | -65.89844 | 2956 ft | 268 kts | 304° |
| 2026-05-05 01:04 | 18.62947 | -65.91598 | 2951 ft | 251 kts | 274° |
| 2026-05-05 01:04 | 18.62965 | -65.95213 | 2984 ft | 245 kts | 265° |
| 2026-05-05 01:04 | 18.62920 | -65.97006 | 2961 ft | 244 kts | 265° |
| 2026-05-05 01:05 | 18.62873 | -65.98784 | 2969 ft | 241 kts | 265° |
| 2026-05-05 01:05 | 18.62822 | -66.00544 | 2951 ft | 239 kts | 265° |
| 2026-05-05 01:05 | 18.62773 | -66.02292 | 2957 ft | 238 kts | 265° |
| 2026-05-05 01:05 | 18.62724 | -66.04032 | 2951 ft | 237 kts | 265° |
| 2026-05-05 01:06 | 18.62694 | -66.05775 | 2966 ft | 240 kts | 265° |
| 2026-05-05 01:06 | 18.62662 | -66.07541 | 2962 ft | 242 kts | 265° |
| 2026-05-05 01:06 | 18.62629 | -66.09318 | 2969 ft | 244 kts | 265° |
| 2026-05-05 01:06 | 18.62602 | -66.11114 | 2969 ft | 246 kts | 265° |
| 2026-05-05 01:07 | 18.62579 | -66.12921 | 2956 ft | 246 kts | 265° |
| 2026-05-05 01:07 | 18.62549 | -66.14727 | 2957 ft | 247 kts | 265° |
| 2026-05-05 01:07 | 18.62422 | -66.16535 | 2808 ft | 251 kts | 250° |
| 2026-05-05 01:07 | 18.61483 | -66.18070 | 2573 ft | 253 kts | 214° |
| 2026-05-05 01:08 | 18.59891 | -66.18712 | 2352 ft | 243 kts | 180° |
| 2026-05-05 01:08 | 18.58254 | -66.18697 | 2236 ft | 228 kts | 176° |
| 2026-05-05 01:08 | 18.56724 | -66.18674 | 2162 ft | 211 kts | 176° |
| 2026-05-05 01:08 | 18.55335 | -66.18656 | 2142 ft | 195 kts | 176° |
| 2026-05-05 01:09 | 18.54029 | -66.18639 | 2129 ft | 182 kts | 176° |
| 2026-05-05 01:09 | 18.52756 | -66.18619 | 2161 ft | 184 kts | 176° |
| 2026-05-05 01:09 | 18.51487 | -66.18600 | 2167 ft | 180 kts | 176° |
| 2026-05-05 01:09 | 18.50236 | -66.18580 | 2181 ft | 179 kts | 176° |
| 2026-05-05 01:10 | 18.49004 | -66.18562 | 2181 ft | 175 kts | 176° |
| 2026-05-05 01:10 | 18.47771 | -66.18532 | 2188 ft | 181 kts | 173° |
| 2026-05-05 01:10 | 18.46551 | -66.18264 | 2173 ft | 177 kts | 158° |
| 2026-05-05 01:10 | 18.45520 | -66.17610 | 2159 ft | 173 kts | 139° |
| 2026-05-05 01:11 | 18.44740 | -66.16645 | 2149 ft | 178 kts | 124° |
| 2026-05-05 01:11 | 18.44188 | -66.15465 | 2164 ft | 181 kts | 112° |
| 2026-05-05 01:11 | 18.43766 | -66.14253 | 2145 ft | 170 kts | 108° |
| 2026-05-05 01:11 | 18.43561 | -66.13065 | 2081 ft | 162 kts | 100° |
| 2026-05-05 01:12 | 18.43440 | -66.11929 | 1924 ft | 148 kts | 97° |
| 2026-05-05 01:12 | 18.43393 | -66.10875 | 1734 ft | 144 kts | 94° |
| 2026-05-05 01:12 | 18.43384 | -66.09812 | 1487 ft | 147 kts | 92° |
| 2026-05-05 01:12 | 18.43415 | -66.08757 | 1262 ft | 142 kts | 90° |
| 2026-05-05 01:13 | 18.43476 | -66.07703 | 982 ft | 145 kts | 91° |
| 2026-05-05 01:13 | 18.43453 | -66.06664 | 882 ft | 141 kts | 97° |
| 2026-05-05 01:13 | 18.43412 | -66.05649 | 827 ft | 139 kts | 94° |
| 2026-05-05 01:13 | 18.43395 | -66.04590 | 656 ft | 146 kts | 94° |
| 2026-05-05 01:14 | 18.43392 | -66.03524 | 413 ft | 146 kts | 92° |
| 2026-05-05 01:14 | 18.43362 | -66.02469 | 271 ft | 143 kts | 92° |
| 2026-05-05 01:14 | 18.43360 | -66.01442 | 55 ft | 138 kts | 93° |
| 2026-05-05 01:14 | 18.43355 | -66.00488 | 4 ft | 120 kts | 91° |
| 2026-05-05 01:15 | 18.43351 | -65.99852 | 1 ft | 67 kts | 90° |
| 2026-05-05 01:15 | 18.43351 | -65.99401 | 1 ft | 45 kts | 90° |
| 2026-05-05 01:15 | 18.43353 | -65.99170 | 1 ft | 21 kts | 88° |
| 2026-05-05 01:15 | 18.43400 | -65.99082 | 1 ft | 14 kts | 15° |
| 2026-05-05 01:16 | 18.43459 | -65.99136 | 1 ft | 13 kts | 275° |